createdAt,value
2017-08-11T00:02:16.072Z,36.30
2017-08-11T00:04:44.102Z,36.30
2017-08-11T00:07:12.169Z,36.20
2017-08-11T00:09:40.364Z,36.20
2017-08-11T00:12:08.447Z,36.20
2017-08-11T00:14:36.543Z,36.10
2017-08-11T00:17:04.675Z,36.10
2017-08-11T00:19:32.830Z,36.10
2017-08-11T00:22:00.890Z,36.10
2017-08-11T00:24:29.084Z,36.00
2017-08-11T00:26:57.074Z,36.00
2017-08-11T00:29:25.124Z,36.00
2017-08-11T00:31:53.298Z,36.00
2017-08-11T00:34:21.356Z,36.00
2017-08-11T00:36:49.427Z,35.90
2017-08-11T00:39:17.537Z,35.90
2017-08-11T00:41:45.557Z,35.90
2017-08-11T00:44:13.596Z,35.90
2017-08-11T00:46:41.754Z,35.90
2017-08-11T00:49:09.785Z,35.80
2017-08-11T00:51:37.864Z,35.80
2017-08-11T00:54:06.046Z,35.80
2017-08-11T00:56:34.131Z,35.80
2017-08-11T00:59:02.222Z,35.80
2017-08-11T01:01:30.371Z,35.80
2017-08-11T01:03:58.425Z,35.80
2017-08-11T01:06:26.439Z,35.80
2017-08-11T01:08:54.668Z,35.80
2017-08-11T01:11:22.661Z,35.70
2017-08-11T01:13:50.689Z,35.80
2017-08-11T01:16:18.899Z,35.70
2017-08-11T01:18:46.965Z,35.70
2017-08-11T01:21:15.167Z,35.70
2017-08-11T01:23:43.359Z,35.70
2017-08-11T01:26:11.396Z,35.50
2017-08-11T01:28:39.417Z,35.50
2017-08-11T01:31:07.608Z,35.60
2017-08-11T01:33:35.629Z,35.60
2017-08-11T01:36:03.658Z,35.60
2017-08-11T01:38:31.864Z,35.50
2017-08-11T01:40:59.861Z,35.50
2017-08-11T01:43:27.977Z,35.50
2017-08-11T01:45:56.181Z,35.40
2017-08-11T01:48:24.225Z,35.40
2017-08-11T01:50:52.282Z,35.30
2017-08-11T01:53:20.465Z,35.30
2017-08-11T01:55:48.568Z,35.20
2017-08-11T01:58:16.657Z,35.10
2017-08-11T02:00:44.864Z,35.10
2017-08-11T02:03:12.962Z,35.10
2017-08-11T02:05:41.275Z,35.10
2017-08-11T02:08:09.553Z,35.20
2017-08-11T02:10:37.635Z,35.20
2017-08-11T02:13:05.701Z,35.20
2017-08-11T02:15:33.950Z,35.20
2017-08-11T02:18:01.991Z,35.00
2017-08-11T02:20:30.026Z,35.20
2017-08-11T02:22:58.356Z,35.20
2017-08-11T02:25:26.406Z,35.20
2017-08-11T02:27:54.462Z,35.20
2017-08-11T02:30:22.628Z,35.30
2017-08-11T02:32:50.713Z,35.30
2017-08-11T02:35:18.740Z,35.30
2017-08-11T02:37:46.895Z,35.30
2017-08-11T02:40:14.971Z,35.40
2017-08-11T02:42:43.003Z,35.30
2017-08-11T02:45:11.173Z,35.10
2017-08-11T02:47:39.165Z,35.30
2017-08-11T02:50:07.180Z,35.50
2017-08-11T02:52:35.330Z,35.80
2017-08-11T02:55:03.423Z,35.80
2017-08-11T02:57:31.421Z,35.90
2017-08-11T02:59:59.647Z,35.90
2017-08-11T03:02:27.713Z,35.90
2017-08-11T03:04:55.832Z,36.00
2017-08-11T03:07:23.991Z,35.80
2017-08-11T03:09:52.009Z,35.80
2017-08-11T03:12:20.041Z,35.80
2017-08-11T03:14:48.196Z,35.70
2017-08-11T03:17:16.308Z,35.80
2017-08-11T03:19:44.365Z,35.80
2017-08-11T03:22:12.533Z,36.00
2017-08-11T03:24:40.760Z,36.10
2017-08-11T03:27:08.828Z,36.30
2017-08-11T03:29:37.040Z,36.60
2017-08-11T03:32:05.100Z,36.50
2017-08-11T03:34:33.216Z,36.50
2017-08-11T03:37:01.378Z,36.70
2017-08-11T03:39:29.448Z,36.70
2017-08-11T03:41:57.509Z,37.00
2017-08-11T03:44:25.656Z,37.10
2017-08-11T03:46:53.909Z,37.30
2017-08-11T03:49:22.092Z,37.40
2017-08-11T03:51:50.233Z,37.60
2017-08-11T03:54:18.337Z,37.80
2017-08-11T03:56:46.397Z,37.70
2017-08-11T03:59:14.560Z,37.90
2017-08-11T04:01:42.614Z,37.80
2017-08-11T04:04:10.678Z,37.80
2017-08-11T04:06:38.872Z,38.00
2017-08-11T04:09:06.901Z,38.30
2017-08-11T04:11:34.943Z,38.40
2017-08-11T04:14:03.109Z,38.80
2017-08-11T04:16:31.219Z,38.90
2017-08-11T04:18:59.221Z,39.00
2017-08-11T04:21:27.377Z,39.20
2017-08-11T04:23:55.471Z,39.60
2017-08-11T04:26:23.685Z,39.90
2017-08-11T04:28:51.866Z,40.10
2017-08-11T04:31:19.853Z,40.30
2017-08-11T04:33:47.933Z,40.70
2017-08-11T04:36:16.160Z,41.10
2017-08-11T04:38:44.232Z,41.40
2017-08-11T04:41:12.326Z,43.20
2017-08-11T04:43:40.473Z,44.60
2017-08-11T04:46:08.501Z,44.80
2017-08-11T04:48:36.564Z,45.50
2017-08-11T04:51:04.765Z,46.50
2017-08-11T04:53:32.807Z,46.10
2017-08-11T04:56:00.863Z,45.20
2017-08-11T04:58:29.096Z,44.20
2017-08-11T05:00:57.116Z,44.40
2017-08-11T05:03:25.184Z,44.90
2017-08-11T05:05:53.302Z,46.00
2017-08-11T05:08:21.325Z,45.80
2017-08-11T05:10:49.341Z,47.00
2017-08-11T05:13:17.571Z,47.00
2017-08-11T05:15:45.669Z,46.40
2017-08-11T05:18:13.774Z,47.00
2017-08-11T05:20:41.893Z,47.00
2017-08-11T05:23:09.938Z,46.60
2017-08-11T05:25:38.012Z,47.20
2017-08-11T05:28:06.249Z,46.50
2017-08-11T05:30:34.295Z,45.90
2017-08-11T05:33:02.358Z,45.80
2017-08-11T05:35:30.509Z,45.00
2017-08-11T05:37:58.528Z,45.10
2017-08-11T05:40:26.668Z,46.30
2017-08-11T05:42:54.852Z,47.20
2017-08-11T05:45:22.900Z,48.70
2017-08-11T05:47:50.924Z,48.60
2017-08-11T05:50:19.029Z,48.70
2017-08-11T05:52:47.049Z,48.10
2017-08-11T05:55:15.095Z,49.20
2017-08-11T05:57:43.282Z,49.00
2017-08-11T06:00:11.335Z,48.90
2017-08-11T06:02:39.568Z,49.20
2017-08-11T06:05:07.729Z,48.60
2017-08-11T06:07:35.781Z,47.90
2017-08-11T06:10:03.865Z,47.40
2017-08-11T06:12:32.045Z,47.10
2017-08-11T06:15:00.154Z,47.10
2017-08-11T06:17:28.244Z,46.20
2017-08-11T06:19:56.469Z,46.60
2017-08-11T06:22:24.529Z,46.90
2017-08-11T06:24:52.612Z,47.10
2017-08-11T06:27:20.822Z,47.20
2017-08-11T06:29:49.034Z,47.70
2017-08-11T06:32:17.089Z,48.60
2017-08-11T06:34:45.290Z,48.20
2017-08-11T06:37:13.321Z,48.90
2017-08-11T06:39:41.324Z,50.20
2017-08-11T06:42:09.539Z,50.80
2017-08-11T06:44:37.548Z,50.70
2017-08-11T06:47:05.656Z,50.70
2017-08-11T06:49:33.833Z,51.40
2017-08-11T06:52:01.849Z,51.20
2017-08-11T06:54:29.869Z,50.00
2017-08-11T06:56:58.088Z,48.60
2017-08-11T06:59:26.121Z,48.20
2017-08-11T07:01:54.196Z,48.20
2017-08-11T07:04:22.360Z,48.50
2017-08-11T07:06:50.392Z,48.10
2017-08-11T07:09:18.400Z,48.30
2017-08-11T07:11:46.636Z,48.40
2017-08-11T07:14:14.685Z,47.50
2017-08-11T07:16:42.713Z,47.40
2017-08-11T07:19:10.952Z,47.40
2017-08-11T07:21:39.037Z,47.70
2017-08-11T07:24:07.080Z,47.80
2017-08-11T07:26:35.271Z,47.70
2017-08-11T07:29:03.327Z,47.90
2017-08-11T07:31:31.542Z,47.60
2017-08-11T07:33:59.696Z,47.30
2017-08-11T07:36:27.757Z,47.00
2017-08-11T07:38:55.815Z,47.20
2017-08-11T07:41:24.044Z,47.70
2017-08-11T07:43:52.086Z,48.30
2017-08-11T07:46:20.187Z,49.20
2017-08-11T07:48:48.364Z,49.90
2017-08-11T07:51:16.500Z,51.20
2017-08-11T07:53:44.588Z,51.30
2017-08-11T07:56:12.741Z,51.80
2017-08-11T07:58:40.775Z,52.60
2017-08-11T08:01:08.794Z,52.80
2017-08-11T08:03:36.966Z,52.00
2017-08-11T08:06:05.021Z,51.50
2017-08-11T08:08:33.073Z,49.80
2017-08-11T08:11:01.272Z,48.80
2017-08-11T08:13:29.302Z,48.00
2017-08-11T08:15:57.360Z,47.40
2017-08-11T08:18:25.489Z,46.80
2017-08-11T08:20:53.561Z,46.70
2017-08-11T08:23:21.632Z,46.60
2017-08-11T08:25:49.801Z,46.60
2017-08-11T08:28:17.888Z,46.50
2017-08-11T08:30:45.886Z,46.40
2017-08-11T08:33:14.006Z,46.50
2017-08-11T08:35:42.100Z,46.40
2017-08-11T08:38:10.198Z,46.20
2017-08-11T08:40:38.414Z,46.30
2017-08-11T08:43:06.472Z,46.20
2017-08-11T08:45:34.489Z,46.30
2017-08-11T08:48:02.630Z,46.30
2017-08-11T08:50:30.645Z,46.00
2017-08-11T08:52:58.665Z,46.00
2017-08-11T08:55:26.794Z,45.80
2017-08-11T08:57:54.864Z,46.00
2017-08-11T09:00:22.885Z,46.10
2017-08-11T09:02:51.029Z,46.10
2017-08-11T09:05:19.052Z,46.00
2017-08-11T09:07:47.866Z,45.90
2017-08-11T09:10:16.035Z,45.90
2017-08-11T09:12:44.120Z,46.00
2017-08-11T09:15:12.138Z,45.90
2017-08-11T09:17:40.309Z,45.80
2017-08-11T09:20:08.349Z,46.00
2017-08-11T09:22:36.384Z,46.10
2017-08-11T09:25:15.988Z,45.90
2017-08-11T09:27:55.417Z,45.80
2017-08-11T09:30:49.856Z,45.90
2017-08-11T09:33:29.391Z,46.00
2017-08-11T09:36:17.738Z,46.10
2017-08-11T09:38:45.918Z,46.00
2017-08-11T09:41:14.034Z,46.00
2017-08-11T09:43:42.178Z,46.00
2017-08-11T09:46:10.282Z,45.90
2017-08-11T09:48:38.355Z,45.80
2017-08-11T09:51:06.496Z,45.80
2017-08-11T09:53:34.549Z,45.80
2017-08-11T09:56:02.608Z,45.80
2017-08-11T09:58:30.782Z,45.60
2017-08-11T10:00:58.810Z,45.50
2017-08-11T10:03:26.915Z,45.30
2017-08-11T10:05:55.319Z,45.10
2017-08-11T10:08:23.377Z,45.00
2017-08-11T10:10:51.438Z,45.00
2017-08-11T10:13:19.581Z,45.00
2017-08-11T10:15:47.669Z,45.10
2017-08-11T10:18:15.782Z,45.00
2017-08-11T10:20:43.947Z,45.10
2017-08-11T10:23:12.036Z,44.90
2017-08-11T10:25:40.053Z,44.90
2017-08-11T10:28:08.249Z,44.90
2017-08-11T10:30:36.292Z,44.80
2017-08-11T10:33:04.380Z,44.80
2017-08-11T10:35:32.564Z,44.80
2017-08-11T10:38:00.635Z,44.80
2017-08-11T10:40:28.814Z,44.80
2017-08-11T10:42:57.020Z,44.70
2017-08-11T10:45:25.091Z,44.70
2017-08-11T10:47:53.169Z,44.50
2017-08-11T10:50:21.308Z,44.20
2017-08-11T10:52:49.329Z,44.00
2017-08-11T10:55:17.381Z,43.80
2017-08-11T10:57:45.522Z,43.80
2017-08-11T11:00:13.560Z,43.90
2017-08-11T11:02:41.625Z,44.00
2017-08-11T11:05:09.786Z,44.00
2017-08-11T11:07:37.877Z,44.00
2017-08-11T11:10:05.960Z,44.00
2017-08-11T11:12:34.132Z,43.80
2017-08-11T11:15:02.208Z,43.80
2017-08-11T11:17:30.282Z,43.70
2017-08-11T11:19:58.496Z,43.80
2017-08-11T11:22:26.588Z,43.70
2017-08-11T11:24:54.638Z,43.70
2017-08-11T11:27:22.762Z,43.60
2017-08-11T11:29:50.845Z,43.60
2017-08-11T11:32:18.902Z,43.40
2017-08-11T11:34:47.097Z,43.40
2017-08-11T11:37:15.142Z,43.50
2017-08-11T11:39:43.181Z,43.40
2017-08-11T11:42:11.484Z,43.20
2017-08-11T11:44:39.525Z,43.30
2017-08-11T11:47:07.609Z,43.20
2017-08-11T11:49:35.780Z,43.20
2017-08-11T11:52:03.971Z,43.00
2017-08-11T11:54:32.003Z,43.00
2017-08-11T11:57:00.170Z,42.90
2017-08-11T11:59:29.036Z,42.90
2017-08-11T12:01:57.111Z,42.80
2017-08-11T12:04:25.348Z,42.80
2017-08-11T12:06:53.440Z,42.70
2017-08-11T12:09:21.508Z,42.70
2017-08-11T12:11:49.675Z,42.70
2017-08-11T12:14:17.769Z,42.50
2017-08-11T12:16:45.794Z,42.50
2017-08-11T12:19:13.968Z,42.50
2017-08-11T12:21:41.996Z,42.30
2017-08-11T12:24:10.124Z,42.20
2017-08-11T12:26:38.361Z,42.00
2017-08-11T12:29:06.397Z,42.00
2017-08-11T12:31:34.430Z,41.80
2017-08-11T12:34:02.637Z,41.70
2017-08-11T12:36:30.700Z,41.60
2017-08-11T12:38:58.756Z,41.60
2017-08-11T12:46:38.383Z,41.50
2017-08-11T12:49:06.468Z,41.50
2017-08-11T12:51:34.550Z,41.40
2017-08-11T12:56:35.992Z,41.20
2017-08-11T12:59:04.075Z,41.30
2017-08-11T13:01:32.109Z,41.20
2017-08-11T13:04:00.284Z,41.00
2017-08-11T13:06:28.362Z,40.90
2017-08-11T13:08:56.418Z,40.90
2017-08-11T13:11:24.637Z,40.70
2017-08-11T13:13:52.708Z,40.90
2017-08-11T13:16:20.720Z,40.80
2017-08-11T13:18:48.842Z,40.70
2017-08-11T13:21:16.954Z,40.60
2017-08-11T13:23:44.989Z,40.50
2017-08-11T13:26:13.201Z,40.30
2017-08-11T13:28:41.257Z,40.40
2017-08-11T13:31:09.327Z,40.60
2017-08-11T13:33:37.575Z,40.60
2017-08-11T13:36:05.653Z,40.50
2017-08-11T13:38:33.710Z,40.40
2017-08-11T13:41:01.900Z,40.40
2017-08-11T13:43:29.955Z,40.30
2017-08-11T13:45:58.235Z,40.30
2017-08-11T13:48:26.386Z,40.40
2017-08-11T13:50:54.421Z,40.30
2017-08-11T13:53:22.446Z,40.30
2017-08-11T13:55:50.622Z,40.20
2017-08-11T13:58:18.703Z,40.30
2017-08-11T14:00:46.696Z,40.30
2017-08-11T14:03:14.867Z,40.20
2017-08-11T14:05:42.885Z,40.20
2017-08-11T14:08:10.973Z,40.20
2017-08-11T14:10:39.204Z,40.10
2017-08-11T14:13:29.349Z,40.20
2017-08-11T14:16:31.689Z,40.10
2017-08-11T14:18:59.740Z,40.10
2017-08-11T14:21:27.831Z,40.10
2017-08-11T14:24:01.796Z,40.10
2017-08-11T14:26:29.827Z,40.10
2017-08-11T14:28:57.882Z,40.10
2017-08-11T14:31:26.045Z,40.10
2017-08-11T14:33:54.110Z,40.00
2017-08-11T14:36:22.148Z,40.00
2017-08-11T14:38:50.366Z,39.90
2017-08-11T14:41:18.452Z,39.80
2017-08-11T14:43:46.450Z,39.70
2017-08-11T14:46:14.950Z,39.70
2017-08-11T14:48:43.022Z,39.70
2017-08-11T14:51:11.116Z,39.60
2017-08-11T14:53:39.223Z,39.60
2017-08-11T14:56:07.297Z,39.60
2017-08-11T14:58:35.341Z,39.60
2017-08-11T15:01:03.332Z,39.50
2017-08-11T15:03:31.425Z,39.40
2017-08-11T15:05:59.462Z,39.40
2017-08-11T15:08:27.496Z,39.40
2017-08-11T15:10:55.560Z,39.30
2017-08-11T15:13:23.626Z,39.30
2017-08-11T15:15:51.676Z,39.30
2017-08-11T15:18:19.742Z,39.30
2017-08-11T15:20:47.790Z,39.30
2017-08-11T15:23:15.914Z,39.20
2017-08-11T15:25:43.926Z,39.20
2017-08-11T15:28:11.995Z,39.20
2017-08-11T15:30:40.066Z,39.20
2017-08-11T15:33:08.115Z,39.20
2017-08-11T15:35:36.201Z,39.20
2017-08-11T15:38:04.248Z,39.10
2017-08-11T15:40:32.286Z,39.20
2017-08-11T15:43:00.351Z,39.10
2017-08-11T15:45:28.389Z,39.10
2017-08-11T15:47:56.744Z,39.00
2017-08-11T15:50:24.798Z,39.00
2017-08-11T15:52:52.873Z,38.90
2017-08-11T15:55:20.925Z,38.80
2017-08-11T15:57:48.994Z,38.70
2017-08-11T16:00:17.022Z,38.70
2017-08-11T16:02:45.067Z,38.70
2017-08-11T16:05:13.090Z,38.70
2017-08-11T16:07:41.171Z,38.70
2017-08-11T16:10:09.296Z,38.70
2017-08-11T16:12:37.352Z,38.80
2017-08-11T16:15:05.545Z,38.80
2017-08-11T16:17:33.625Z,38.80
2017-08-11T16:20:01.689Z,38.70
2017-08-11T16:22:29.740Z,38.80
2017-08-11T16:24:57.796Z,38.80
2017-08-11T16:27:25.897Z,38.70
2017-08-11T16:29:53.975Z,38.80
2017-08-11T16:32:22.040Z,38.70
2017-08-11T16:34:50.112Z,38.70
2017-08-11T16:37:18.187Z,38.80
2017-08-11T16:39:46.263Z,38.80
2017-08-11T16:42:14.314Z,38.80
2017-08-11T16:44:42.478Z,38.80
2017-08-11T16:47:10.497Z,38.80
2017-08-11T16:49:38.540Z,38.80
2017-08-11T16:52:06.545Z,38.80
2017-08-11T16:54:34.611Z,38.80
2017-08-11T16:57:02.664Z,38.80
2017-08-11T16:59:30.772Z,38.80
2017-08-11T17:01:58.866Z,38.80
2017-08-11T17:04:26.867Z,38.80
2017-08-11T17:06:54.888Z,38.80
2017-08-11T17:09:24.145Z,38.80
2017-08-11T17:11:52.181Z,38.80
2017-08-11T17:14:20.291Z,38.80
2017-08-11T17:16:48.357Z,38.80
2017-08-11T17:19:16.406Z,38.80
2017-08-11T17:21:44.444Z,38.80
2017-08-11T17:24:12.543Z,38.70
2017-08-11T17:26:40.728Z,38.80
2017-08-11T17:29:08.767Z,38.70
2017-08-11T17:31:36.809Z,38.70
2017-08-11T17:34:04.832Z,38.70
2017-08-11T17:36:32.900Z,38.70
2017-08-11T17:39:01.016Z,38.60
2017-08-11T17:41:29.065Z,38.70
2017-08-11T17:43:57.124Z,38.60
2017-08-11T17:46:25.251Z,38.60
2017-08-11T17:48:53.302Z,38.60
2017-08-11T17:51:21.313Z,38.60
2017-08-11T17:53:49.383Z,38.60
2017-08-11T17:56:17.585Z,38.60
2017-08-11T17:58:45.645Z,38.60
2017-08-11T18:01:13.700Z,38.50
2017-08-11T18:03:41.852Z,38.60
2017-08-11T18:06:09.932Z,38.60
2017-08-11T18:08:37.992Z,38.60
2017-08-11T18:11:06.065Z,38.50
2017-08-11T18:13:34.102Z,38.50
2017-08-11T18:16:02.176Z,38.50
2017-08-11T18:18:30.236Z,38.50
2017-08-11T18:20:58.296Z,38.50
2017-08-11T18:23:26.380Z,38.50
2017-08-11T18:25:54.536Z,38.50
2017-08-11T18:28:22.605Z,38.50
2017-08-11T18:30:50.637Z,38.50
2017-08-11T18:33:18.712Z,38.50
2017-08-11T18:35:46.729Z,38.40
2017-08-11T18:38:14.733Z,38.50
2017-08-11T18:40:42.841Z,38.40
2017-08-11T18:43:10.891Z,38.40
2017-08-11T18:45:38.919Z,38.40
2017-08-11T18:48:07.046Z,38.40
2017-08-11T18:50:35.129Z,38.40
2017-08-11T18:53:03.136Z,38.30
2017-08-11T18:55:31.189Z,38.30
2017-08-11T18:57:59.258Z,38.30
2017-08-11T19:00:27.278Z,38.30
2017-08-11T19:02:55.341Z,38.30
2017-08-11T19:05:23.415Z,38.30
2017-08-11T19:07:51.526Z,38.20
2017-08-11T19:10:19.551Z,38.10
2017-08-11T19:12:47.656Z,38.10
2017-08-11T19:15:15.782Z,38.00
2017-08-11T19:17:44.062Z,38.00
2017-08-11T19:20:12.066Z,37.90
2017-08-11T19:22:40.172Z,37.90
2017-08-11T19:25:08.206Z,37.80
2017-08-11T19:27:36.217Z,37.80
2017-08-11T19:30:04.249Z,37.80
2017-08-11T19:32:32.322Z,37.80
2017-08-11T19:35:00.403Z,37.80
2017-08-11T19:37:28.576Z,37.70
2017-08-11T19:39:56.614Z,37.70
2017-08-11T19:42:24.665Z,37.70
2017-08-11T19:44:52.864Z,37.70
2017-08-11T19:47:20.893Z,37.70
2017-08-11T19:49:48.885Z,37.70
2017-08-11T19:52:17.029Z,37.70
2017-08-11T19:54:45.251Z,37.70
2017-08-11T19:57:13.477Z,37.70
2017-08-11T19:59:41.665Z,37.70
2017-08-11T20:02:09.877Z,37.70
2017-08-11T20:04:37.918Z,37.70
2017-08-11T20:07:06.083Z,37.60
2017-08-11T20:09:36.570Z,37.60
2017-08-11T20:12:04.695Z,37.60
2017-08-11T20:14:33.066Z,37.60
2017-08-11T20:17:01.125Z,37.70
2017-08-11T20:19:29.272Z,37.60
2017-08-11T20:21:57.459Z,37.60
2017-08-11T20:24:25.524Z,37.60
2017-08-11T20:26:53.542Z,37.60
2017-08-11T20:29:21.736Z,37.60
2017-08-11T20:31:49.790Z,37.60
2017-08-11T20:34:17.923Z,37.50
2017-08-11T20:36:46.045Z,37.50
2017-08-11T20:39:14.168Z,37.50
2017-08-11T20:41:42.208Z,37.50
2017-08-11T20:44:10.357Z,37.50
2017-08-11T20:46:38.368Z,37.40
2017-08-11T20:49:06.417Z,37.40
2017-08-11T20:51:34.584Z,37.40
2017-08-11T20:54:02.636Z,37.40
2017-08-11T20:56:30.701Z,37.30
2017-08-11T20:58:58.878Z,37.30
2017-08-11T21:01:26.873Z,37.20
2017-08-11T21:03:54.955Z,37.30
2017-08-11T21:06:23.107Z,37.30
2017-08-11T21:08:51.152Z,37.30
2017-08-11T21:11:19.234Z,37.20
2017-08-11T21:13:47.391Z,37.20
2017-08-11T21:16:15.437Z,37.20
2017-08-11T21:18:43.452Z,37.20
2017-08-11T21:21:11.787Z,37.20
2017-08-11T21:23:39.892Z,37.20
2017-08-11T21:26:07.913Z,37.10
2017-08-11T21:28:36.080Z,37.10
2017-08-11T21:31:04.123Z,37.10
2017-08-11T21:33:32.268Z,37.10
2017-08-11T21:36:00.464Z,37.10
2017-08-11T21:38:28.485Z,37.10
2017-08-11T21:40:56.565Z,37.10
2017-08-11T21:43:24.690Z,37.00
2017-08-11T21:45:52.829Z,37.00
2017-08-11T21:48:20.867Z,37.00
2017-08-11T21:50:49.042Z,37.00
2017-08-11T21:53:17.131Z,37.00
2017-08-11T21:55:45.194Z,37.00
2017-08-11T21:58:13.313Z,36.90
2017-08-11T22:00:42.496Z,37.00
2017-08-11T22:03:10.517Z,36.90
2017-08-11T22:05:38.726Z,36.80
2017-08-11T22:08:06.748Z,36.80
2017-08-11T22:10:34.860Z,36.70
2017-08-11T22:13:03.040Z,36.60
2017-08-11T22:15:31.094Z,36.60
2017-08-11T22:17:59.149Z,36.50
2017-08-11T22:20:27.308Z,36.40
2017-08-11T22:22:55.497Z,36.30
2017-08-11T22:25:23.561Z,36.40
2017-08-11T22:27:51.705Z,36.30
2017-08-11T22:30:19.785Z,36.30
2017-08-11T22:32:47.845Z,36.40
2017-08-11T22:35:15.984Z,36.30
2017-08-11T22:37:44.042Z,36.30
2017-08-11T22:40:12.075Z,36.30
2017-08-11T22:42:40.289Z,36.30
2017-08-11T22:45:08.323Z,36.30
2017-08-11T22:47:36.354Z,36.20
2017-08-11T22:50:04.507Z,36.20
2017-08-11T22:52:32.512Z,36.20
2017-08-11T22:55:00.533Z,36.20
2017-08-11T22:57:28.732Z,36.20
2017-08-11T22:59:56.748Z,36.10
2017-08-11T23:02:24.828Z,36.10
2017-08-11T23:04:52.973Z,36.00
2017-08-11T23:07:21.056Z,36.00
2017-08-11T23:09:49.127Z,36.00
2017-08-11T23:12:17.285Z,36.10
2017-08-11T23:14:45.271Z,36.10
2017-08-11T23:17:13.335Z,36.10
2017-08-11T23:19:41.483Z,36.10
2017-08-11T23:22:09.550Z,36.10
2017-08-11T23:24:37.754Z,36.10
2017-08-11T23:27:05.968Z,36.00
2017-08-11T23:29:34.007Z,36.00
2017-08-11T23:32:02.011Z,36.00
2017-08-11T23:34:30.122Z,35.90
2017-08-11T23:36:58.299Z,35.90
2017-08-11T23:39:26.337Z,35.90
2017-08-11T23:41:54.560Z,35.90
2017-08-11T23:44:22.643Z,35.80
2017-08-11T23:46:50.726Z,35.80
2017-08-11T23:49:18.838Z,35.80
2017-08-11T23:51:46.943Z,35.70
2017-08-11T23:54:14.993Z,35.70
2017-08-11T23:56:43.165Z,35.70
2017-08-11T23:59:11.221Z,35.60
